sensor_id;sensor_type;location;lat;lon;timestamp;temperature;humidity
6102;DHT22;3081;50.584;7.032;2023-03-01T00:00:13;-0.30;91.80
6102;DHT22;3081;50.584;7.032;2023-03-01T00:02:40;-0.30;91.90
6102;DHT22;3081;50.584;7.032;2023-03-01T00:05:09;-0.40;91.90
6102;DHT22;3081;50.584;7.032;2023-03-01T00:07:36;-0.40;92.00
6102;DHT22;3081;50.584;7.032;2023-03-01T00:10:03;-0.40;92.10
6102;DHT22;3081;50.584;7.032;2023-03-01T00:12:31;-0.50;92.40
6102;DHT22;3081;50.584;7.032;2023-03-01T00:14:58;-0.50;92.60
6102;DHT22;3081;50.584;7.032;2023-03-01T00:17:25;-0.60;93.20
6102;DHT22;3081;50.584;7.032;2023-03-01T00:19:52;-0.70;93.90
6102;DHT22;3081;50.584;7.032;2023-03-01T00:22:20;-0.80;93.80
6102;DHT22;3081;50.584;7.032;2023-03-01T00:24:47;-0.80;93.70
6102;DHT22;3081;50.584;7.032;2023-03-01T00:27:14;-0.80;93.70
6102;DHT22;3081;50.584;7.032;2023-03-01T00:29:40;-0.80;93.60
6102;DHT22;3081;50.584;7.032;2023-03-01T00:32:07;-0.80;94.00
6102;DHT22;3081;50.584;7.032;2023-03-01T00:34:34;-0.80;94.20
6102;DHT22;3081;50.584;7.032;2023-03-01T00:37:01;-0.90;94.20
6102;DHT22;3081;50.584;7.032;2023-03-01T00:39:32;-0.90;94.80
6102;DHT22;3081;50.584;7.032;2023-03-01T00:41:59;-1.00;94.60
6102;DHT22;3081;50.584;7.032;2023-03-01T00:44:26;-1.10;94.70
6102;DHT22;3081;50.584;7.032;2023-03-01T00:46:53;-1.10;94.80
6102;DHT22;3081;50.584;7.032;2023-03-01T00:49:20;-1.10;94.90
6102;DHT22;3081;50.584;7.032;2023-03-01T00:51:49;-1.10;94.80
6102;DHT22;3081;50.584;7.032;2023-03-01T00:54:16;-1.00;94.80
6102;DHT22;3081;50.584;7.032;2023-03-01T00:56:44;-1.00;94.80
6102;DHT22;3081;50.584;7.032;2023-03-01T00:59:11;-1.00;94.80
6102;DHT22;3081;50.584;7.032;2023-03-01T01:01:38;-1.00;94.80
6102;DHT22;3081;50.584;7.032;2023-03-01T01:04:07;-0.90;94.90
6102;DHT22;3081;50.584;7.032;2023-03-01T01:06:36;-0.90;94.90
6102;DHT22;3081;50.584;7.032;2023-03-01T01:09:04;-0.90;95.00
6102;DHT22;3081;50.584;7.032;2023-03-01T01:11:32;-0.90;94.90
6102;DHT22;3081;50.584;7.032;2023-03-01T01:14:02;-1.00;94.80
6102;DHT22;3081;50.584;7.032;2023-03-01T01:16:29;-1.00;94.90
6102;DHT22;3081;50.584;7.032;2023-03-01T01:18:56;-1.00;94.80
6102;DHT22;3081;50.584;7.032;2023-03-01T01:21:24;-1.10;94.80
6102;DHT22;3081;50.584;7.032;2023-03-01T01:23:52;-1.10;95.00
6102;DHT22;3081;50.584;7.032;2023-03-01T01:26:20;-1.40;95.20
6102;DHT22;3081;50.584;7.032;2023-03-01T01:28:48;-1.20;95.30
6102;DHT22;3081;50.584;7.032;2023-03-01T01:31:17;-1.20;95.50
6102;DHT22;3081;50.584;7.032;2023-03-01T01:33:45;-1.20;95.50
6102;DHT22;3081;50.584;7.032;2023-03-01T01:36:12;-1.20;95.50
6102;DHT22;3081;50.584;7.032;2023-03-01T01:38:39;-1.10;95.50
6102;DHT22;3081;50.584;7.032;2023-03-01T01:41:10;-1.20;95.50
6102;DHT22;3081;50.584;7.032;2023-03-01T01:43:39;-1.20;95.60
6102;DHT22;3081;50.584;7.032;2023-03-01T01:46:18;-1.30;95.60
6102;DHT22;3081;50.584;7.032;2023-03-01T01:48:55;-1.30;95.70
6102;DHT22;3081;50.584;7.032;2023-03-01T01:51:27;-1.30;95.80
6102;DHT22;3081;50.584;7.032;2023-03-01T01:53:57;-1.20;96.00
6102;DHT22;3081;50.584;7.032;2023-03-01T01:56:26;-1.30;95.90
6102;DHT22;3081;50.584;7.032;2023-03-01T01:58:55;-1.20;95.80
6102;DHT22;3081;50.584;7.032;2023-03-01T02:01:24;-1.20;95.80
6102;DHT22;3081;50.584;7.032;2023-03-01T02:03:52;-1.20;95.70
6102;DHT22;3081;50.584;7.032;2023-03-01T02:06:28;-1.30;95.80
6102;DHT22;3081;50.584;7.032;2023-03-01T02:08:59;-1.30;95.90
6102;DHT22;3081;50.584;7.032;2023-03-01T02:11:27;-1.30;96.00
6102;DHT22;3081;50.584;7.032;2023-03-01T02:13:55;-1.30;96.00
6102;DHT22;3081;50.584;7.032;2023-03-01T02:16:25;-1.30;96.10
6102;DHT22;3081;50.584;7.032;2023-03-01T02:18:52;-1.30;96.20
6102;DHT22;3081;50.584;7.032;2023-03-01T02:21:30;-1.30;96.20
6102;DHT22;3081;50.584;7.032;2023-03-01T02:23:58;-1.40;96.20
6102;DHT22;3081;50.584;7.032;2023-03-01T02:26:34;-1.40;96.00
6102;DHT22;3081;50.584;7.032;2023-03-01T02:29:04;-1.40;96.10
6102;DHT22;3081;50.584;7.032;2023-03-01T02:31:32;-1.40;96.10
6102;DHT22;3081;50.584;7.032;2023-03-01T02:34:10;-1.40;96.10
6102;DHT22;3081;50.584;7.032;2023-03-01T02:36:40;-1.50;96.00
6102;DHT22;3081;50.584;7.032;2023-03-01T02:39:13;-1.50;96.00
6102;DHT22;3081;50.584;7.032;2023-03-01T02:41:46;-1.50;95.90
6102;DHT22;3081;50.584;7.032;2023-03-01T02:44:17;-1.50;95.90
6102;DHT22;3081;50.584;7.032;2023-03-01T02:46:45;-1.60;96.20
6102;DHT22;3081;50.584;7.032;2023-03-01T02:49:22;-1.70;96.30
6102;DHT22;3081;50.584;7.032;2023-03-01T02:52:01;-1.70;96.40
6102;DHT22;3081;50.584;7.032;2023-03-01T02:54:36;-1.70;96.60
6102;DHT22;3081;50.584;7.032;2023-03-01T02:57:05;-1.80;97.00
6102;DHT22;3081;50.584;7.032;2023-03-01T02:59:35;-1.90;97.10
6102;DHT22;3081;50.584;7.032;2023-03-01T03:02:04;-2.00;97.40
6102;DHT22;3081;50.584;7.032;2023-03-01T03:04:31;-2.00;97.40
6102;DHT22;3081;50.584;7.032;2023-03-01T03:06:58;-1.50;97.60
6102;DHT22;3081;50.584;7.032;2023-03-01T03:09:25;-1.90;97.40
6102;DHT22;3081;50.584;7.032;2023-03-01T03:11:52;-1.90;97.50
6102;DHT22;3081;50.584;7.032;2023-03-01T03:14:19;-1.90;97.40
6102;DHT22;3081;50.584;7.032;2023-03-01T03:16:49;-1.90;97.50
6102;DHT22;3081;50.584;7.032;2023-03-01T03:19:17;-1.90;97.40
6102;DHT22;3081;50.584;7.032;2023-03-01T03:21:44;-1.90;97.50
6102;DHT22;3081;50.584;7.032;2023-03-01T03:24:11;-2.00;97.70
6102;DHT22;3081;50.584;7.032;2023-03-01T03:26:38;-2.00;97.60
6102;DHT22;3081;50.584;7.032;2023-03-01T03:29:05;-2.00;97.70
6102;DHT22;3081;50.584;7.032;2023-03-01T03:31:32;-2.00;97.70
6102;DHT22;3081;50.584;7.032;2023-03-01T03:34:00;-2.00;97.80
6102;DHT22;3081;50.584;7.032;2023-03-01T03:36:27;-2.00;98.10
6102;DHT22;3081;50.584;7.032;2023-03-01T03:38:54;-2.10;98.20
6102;DHT22;3081;50.584;7.032;2023-03-01T03:41:21;-2.10;98.20
6102;DHT22;3081;50.584;7.032;2023-03-01T03:43:48;-2.10;98.20
6102;DHT22;3081;50.584;7.032;2023-03-01T03:46:15;-2.10;98.20
6102;DHT22;3081;50.584;7.032;2023-03-01T03:48:44;-2.10;98.20
6102;DHT22;3081;50.584;7.032;2023-03-01T03:51:14;-2.10;98.20
6102;DHT22;3081;50.584;7.032;2023-03-01T03:53:42;-2.10;98.40
6102;DHT22;3081;50.584;7.032;2023-03-01T03:56:09;-2.20;98.30
6102;DHT22;3081;50.584;7.032;2023-03-01T03:58:36;-2.20;98.30
6102;DHT22;3081;50.584;7.032;2023-03-01T04:01:04;-2.20;98.30
6102;DHT22;3081;50.584;7.032;2023-03-01T04:03:32;-2.10;98.40
6102;DHT22;3081;50.584;7.032;2023-03-01T04:06:01;-2.10;98.50
6102;DHT22;3081;50.584;7.032;2023-03-01T04:08:31;-2.10;98.40
6102;DHT22;3081;50.584;7.032;2023-03-01T04:10:59;-2.10;98.50
6102;DHT22;3081;50.584;7.032;2023-03-01T04:13:47;-2.20;98.60
6102;DHT22;3081;50.584;7.032;2023-03-01T04:16:13;-2.20;98.70
6102;DHT22;3081;50.584;7.032;2023-03-01T04:18:40;-2.30;98.80
6102;DHT22;3081;50.584;7.032;2023-03-01T04:21:07;-2.40;98.80
6102;DHT22;3081;50.584;7.032;2023-03-01T04:23:36;-2.30;98.90
6102;DHT22;3081;50.584;7.032;2023-03-01T04:26:03;-2.30;98.90
6102;DHT22;3081;50.584;7.032;2023-03-01T04:28:32;-2.30;98.90
6102;DHT22;3081;50.584;7.032;2023-03-01T04:31:04;-2.30;99.00
6102;DHT22;3081;50.584;7.032;2023-03-01T04:33:38;-2.40;99.00
6102;DHT22;3081;50.584;7.032;2023-03-01T04:36:06;-2.40;99.00
6102;DHT22;3081;50.584;7.032;2023-03-01T04:38:35;-2.40;99.20
6102;DHT22;3081;50.584;7.032;2023-03-01T04:41:04;-2.40;99.10
6102;DHT22;3081;50.584;7.032;2023-03-01T04:43:31;-2.40;99.10
6102;DHT22;3081;50.584;7.032;2023-03-01T04:46:03;-2.40;99.20
6102;DHT22;3081;50.584;7.032;2023-03-01T04:48:31;-2.40;99.20
6102;DHT22;3081;50.584;7.032;2023-03-01T04:50:59;-2.40;99.20
6102;DHT22;3081;50.584;7.032;2023-03-01T04:53:26;-2.40;99.20
6102;DHT22;3081;50.584;7.032;2023-03-01T04:55:55;-2.40;99.20
6102;DHT22;3081;50.584;7.032;2023-03-01T04:58:23;-2.30;99.30
6102;DHT22;3081;50.584;7.032;2023-03-01T05:00:51;-2.30;99.30
6102;DHT22;3081;50.584;7.032;2023-03-01T05:03:18;-2.40;99.70
6102;DHT22;3081;50.584;7.032;2023-03-01T05:05:47;-2.40;99.60
6102;DHT22;3081;50.584;7.032;2023-03-01T05:08:15;-2.40;99.60
6102;DHT22;3081;50.584;7.032;2023-03-01T05:10:45;-2.40;99.90
6102;DHT22;3081;50.584;7.032;2023-03-01T05:13:14;-2.40;99.70
6102;DHT22;3081;50.584;7.032;2023-03-01T05:15:46;-2.50;99.60
6102;DHT22;3081;50.584;7.032;2023-03-01T05:18:14;-2.40;99.80
6102;DHT22;3081;50.584;7.032;2023-03-01T05:20:40;-2.50;99.70
6102;DHT22;3081;50.584;7.032;2023-03-01T05:23:07;-2.50;99.90
6102;DHT22;3081;50.584;7.032;2023-03-01T05:25:34;-2.40;99.90
6102;DHT22;3081;50.584;7.032;2023-03-01T05:28:06;-2.40;99.90
6102;DHT22;3081;50.584;7.032;2023-03-01T05:30:34;-2.30;99.90
6102;DHT22;3081;50.584;7.032;2023-03-01T05:33:01;-2.40;99.90
6102;DHT22;3081;50.584;7.032;2023-03-01T05:35:29;-2.40;99.90
6102;DHT22;3081;50.584;7.032;2023-03-01T05:37:58;-2.40;99.90
6102;DHT22;3081;50.584;7.032;2023-03-01T05:40:25;-2.40;99.90
6102;DHT22;3081;50.584;7.032;2023-03-01T05:42:53;-2.40;99.90
6102;DHT22;3081;50.584;7.032;2023-03-01T05:45:21;-2.40;99.90
6102;DHT22;3081;50.584;7.032;2023-03-01T05:47:50;-2.40;99.90
6102;DHT22;3081;50.584;7.032;2023-03-01T05:50:19;-2.40;99.90
6102;DHT22;3081;50.584;7.032;2023-03-01T05:52:47;-2.40;99.90
6102;DHT22;3081;50.584;7.032;2023-03-01T05:55:16;-2.40;99.90
6102;DHT22;3081;50.584;7.032;2023-03-01T05:57:43;-2.40;99.90
6102;DHT22;3081;50.584;7.032;2023-03-01T06:00:11;-2.40;99.90
6102;DHT22;3081;50.584;7.032;2023-03-01T06:02:39;-2.50;99.90
6102;DHT22;3081;50.584;7.032;2023-03-01T06:05:09;-2.50;99.90
6102;DHT22;3081;50.584;7.032;2023-03-01T06:07:37;-2.50;99.90
6102;DHT22;3081;50.584;7.032;2023-03-01T06:10:05;-2.60;99.90
6102;DHT22;3081;50.584;7.032;2023-03-01T06:12:32;-2.60;99.90
6102;DHT22;3081;50.584;7.032;2023-03-01T06:14:59;-2.70;99.90
6102;DHT22;3081;50.584;7.032;2023-03-01T06:17:29;-2.70;99.90
6102;DHT22;3081;50.584;7.032;2023-03-01T06:19:56;-2.90;99.90
6102;DHT22;3081;50.584;7.032;2023-03-01T06:22:25;-2.90;99.90
6102;DHT22;3081;50.584;7.032;2023-03-01T06:24:51;-2.90;99.90
6102;DHT22;3081;50.584;7.032;2023-03-01T06:27:18;-2.90;99.90
6102;DHT22;3081;50.584;7.032;2023-03-01T06:29:45;-2.90;99.90
6102;DHT22;3081;50.584;7.032;2023-03-01T06:32:12;-2.90;99.90
6102;DHT22;3081;50.584;7.032;2023-03-01T06:34:39;-2.80;99.90
6102;DHT22;3081;50.584;7.032;2023-03-01T06:37:07;-2.80;99.90
6102;DHT22;3081;50.584;7.032;2023-03-01T06:39:35;-2.80;99.90
6102;DHT22;3081;50.584;7.032;2023-03-01T06:42:03;-2.70;99.90
6102;DHT22;3081;50.584;7.032;2023-03-01T06:44:30;-2.70;99.90
6102;DHT22;3081;50.584;7.032;2023-03-01T06:46:57;-2.60;99.90
6102;DHT22;3081;50.584;7.032;2023-03-01T06:49:24;-2.60;99.90
6102;DHT22;3081;50.584;7.032;2023-03-01T06:51:51;-2.60;99.90
6102;DHT22;3081;50.584;7.032;2023-03-01T06:54:18;-2.60;99.90
6102;DHT22;3081;50.584;7.032;2023-03-01T06:56:49;-2.50;99.90
6102;DHT22;3081;50.584;7.032;2023-03-01T06:59:17;-2.50;99.90
6102;DHT22;3081;50.584;7.032;2023-03-01T07:01:44;-2.30;99.90
6102;DHT22;3081;50.584;7.032;2023-03-01T07:04:12;-2.30;99.90
6102;DHT22;3081;50.584;7.032;2023-03-01T07:06:39;-2.20;99.90
6102;DHT22;3081;50.584;7.032;2023-03-01T07:09:06;-2.20;99.90
6102;DHT22;3081;50.584;7.032;2023-03-01T07:11:33;-2.10;99.90
6102;DHT22;3081;50.584;7.032;2023-03-01T07:14:02;-2.00;99.90
6102;DHT22;3081;50.584;7.032;2023-03-01T07:16:28;-2.00;99.90
6102;DHT22;3081;50.584;7.032;2023-03-01T07:18:55;-2.00;99.90
6102;DHT22;3081;50.584;7.032;2023-03-01T07:21:22;-1.90;99.90
6102;DHT22;3081;50.584;7.032;2023-03-01T07:23:49;-1.80;99.90
6102;DHT22;3081;50.584;7.032;2023-03-01T07:26:16;-1.70;99.90
6102;DHT22;3081;50.584;7.032;2023-03-01T07:28:43;-1.50;99.90
6102;DHT22;3081;50.584;7.032;2023-03-01T07:31:11;-1.50;99.90
6102;DHT22;3081;50.584;7.032;2023-03-01T07:33:38;-1.40;99.90
6102;DHT22;3081;50.584;7.032;2023-03-01T07:36:06;-1.30;99.90
6102;DHT22;3081;50.584;7.032;2023-03-01T07:38:33;-1.20;99.90
6102;DHT22;3081;50.584;7.032;2023-03-01T07:41:01;-1.10;99.90
6102;DHT22;3081;50.584;7.032;2023-03-01T07:43:28;-1.00;99.90
6102;DHT22;3081;50.584;7.032;2023-03-01T07:45:58;-0.90;99.90
6102;DHT22;3081;50.584;7.032;2023-03-01T07:48:26;-0.70;99.90
6102;DHT22;3081;50.584;7.032;2023-03-01T07:50:53;-0.60;99.90
6102;DHT22;3081;50.584;7.032;2023-03-01T07:53:20;-0.50;99.90
6102;DHT22;3081;50.584;7.032;2023-03-01T07:55:47;-0.40;99.90
6102;DHT22;3081;50.584;7.032;2023-03-01T07:58:14;-0.30;99.90
6102;DHT22;3081;50.584;7.032;2023-03-01T08:00:41;-0.10;99.90
6102;DHT22;3081;50.584;7.032;2023-03-01T08:03:08;0.00;99.90
6102;DHT22;3081;50.584;7.032;2023-03-01T08:05:36;0.10;99.90
6102;DHT22;3081;50.584;7.032;2023-03-01T08:08:04;0.20;99.90
6102;DHT22;3081;50.584;7.032;2023-03-01T08:10:31;0.40;99.90
6102;DHT22;3081;50.584;7.032;2023-03-01T08:12:58;0.60;99.90
6102;DHT22;3081;50.584;7.032;2023-03-01T08:15:25;1.00;99.90
6102;DHT22;3081;50.584;7.032;2023-03-01T08:17:52;1.70;99.90
6102;DHT22;3081;50.584;7.032;2023-03-01T08:20:19;2.60;99.90
6102;DHT22;3081;50.584;7.032;2023-03-01T08:22:47;3.40;99.90
6102;DHT22;3081;50.584;7.032;2023-03-01T08:25:14;4.00;97.00
6102;DHT22;3081;50.584;7.032;2023-03-01T08:27:41;4.40;97.50
6102;DHT22;3081;50.584;7.032;2023-03-01T08:30:09;5.00;95.90
6102;DHT22;3081;50.584;7.032;2023-03-01T08:32:37;5.60;94.80
6102;DHT22;3081;50.584;7.032;2023-03-01T08:35:05;6.30;94.00
6102;DHT22;3081;50.584;7.032;2023-03-01T08:37:32;6.80;92.60
6102;DHT22;3081;50.584;7.032;2023-03-01T08:40:00;7.20;91.00
6102;DHT22;3081;50.584;7.032;2023-03-01T08:42:29;7.90;91.30
6102;DHT22;3081;50.584;7.032;2023-03-01T08:44:56;8.60;90.20
6102;DHT22;3081;50.584;7.032;2023-03-01T08:47:23;9.30;87.10
6102;DHT22;3081;50.584;7.032;2023-03-01T08:49:50;9.70;83.80
6102;DHT22;3081;50.584;7.032;2023-03-01T08:52:18;10.10;82.20
6102;DHT22;3081;50.584;7.032;2023-03-01T08:54:47;10.40;79.40
6102;DHT22;3081;50.584;7.032;2023-03-01T08:57:15;10.40;78.20
6102;DHT22;3081;50.584;7.032;2023-03-01T08:59:42;10.30;77.60
6102;DHT22;3081;50.584;7.032;2023-03-01T09:02:13;10.40;76.00
6102;DHT22;3081;50.584;7.032;2023-03-01T09:04:40;10.70;75.00
6102;DHT22;3081;50.584;7.032;2023-03-01T09:07:08;11.00;73.10
6102;DHT22;3081;50.584;7.032;2023-03-01T09:09:35;10.90;71.40
6102;DHT22;3081;50.584;7.032;2023-03-01T09:12:02;10.80;70.70
6102;DHT22;3081;50.584;7.032;2023-03-01T09:14:31;10.50;71.20
6102;DHT22;3081;50.584;7.032;2023-03-01T09:16:57;10.30;69.90
6102;DHT22;3081;50.584;7.032;2023-03-01T09:19:28;9.90;70.30
6102;DHT22;3081;50.584;7.032;2023-03-01T09:21:55;9.70;70.30
6102;DHT22;3081;50.584;7.032;2023-03-01T09:24:24;9.80;71.40
6102;DHT22;3081;50.584;7.032;2023-03-01T09:26:53;10.10;71.10
6102;DHT22;3081;50.584;7.032;2023-03-01T09:29:20;10.40;70.60
6102;DHT22;3081;50.584;7.032;2023-03-01T09:31:49;10.90;67.70
6102;DHT22;3081;50.584;7.032;2023-03-01T09:34:16;10.80;67.60
6102;DHT22;3081;50.584;7.032;2023-03-01T09:36:48;10.90;68.40
6102;DHT22;3081;50.584;7.032;2023-03-01T09:39:15;11.10;67.90
6102;DHT22;3081;50.584;7.032;2023-03-01T09:41:46;11.40;66.30
6102;DHT22;3081;50.584;7.032;2023-03-01T09:44:31;11.60;66.10
6102;DHT22;3081;50.584;7.032;2023-03-01T09:47:02;11.90;65.40
6102;DHT22;3081;50.584;7.032;2023-03-01T09:49:31;12.30;66.00
6102;DHT22;3081;50.584;7.032;2023-03-01T09:52:17;12.80;65.00
6102;DHT22;3081;50.584;7.032;2023-03-01T09:54:46;13.20;63.60
6102;DHT22;3081;50.584;7.032;2023-03-01T09:57:19;13.70;61.60
6102;DHT22;3081;50.584;7.032;2023-03-01T10:00:16;14.20;60.90
6102;DHT22;3081;50.584;7.032;2023-03-01T10:02:48;14.60;59.70
6102;DHT22;3081;50.584;7.032;2023-03-01T10:05:27;14.80;58.10
6102;DHT22;3081;50.584;7.032;2023-03-01T10:10:44;15.10;58.10
6102;DHT22;3081;50.584;7.032;2023-03-01T10:13:16;15.40;57.50
6102;DHT22;3081;50.584;7.032;2023-03-01T10:15:48;15.70;56.00
6102;DHT22;3081;50.584;7.032;2023-03-01T10:18:25;15.60;55.50
6102;DHT22;3081;50.584;7.032;2023-03-01T10:20:54;15.60;54.80
6102;DHT22;3081;50.584;7.032;2023-03-01T10:23:23;15.30;54.80
6102;DHT22;3081;50.584;7.032;2023-03-01T10:26:11;15.40;55.70
6102;DHT22;3081;50.584;7.032;2023-03-01T10:28:48;15.60;56.00
6102;DHT22;3081;50.584;7.032;2023-03-01T10:31:20;15.80;54.70
6102;DHT22;3081;50.584;7.032;2023-03-01T10:33:53;16.00;54.00
6102;DHT22;3081;50.584;7.032;2023-03-01T10:36:22;16.10;54.30
6102;DHT22;3081;50.584;7.032;2023-03-01T10:38:50;16.30;54.60
6102;DHT22;3081;50.584;7.032;2023-03-01T10:41:19;16.40;53.10
6102;DHT22;3081;50.584;7.032;2023-03-01T10:43:50;16.10;53.00
6102;DHT22;3081;50.584;7.032;2023-03-01T10:46:26;15.90;54.10
6102;DHT22;3081;50.584;7.032;2023-03-01T10:49:13;15.80;54.50
6102;DHT22;3081;50.584;7.032;2023-03-01T10:51:41;16.20;54.70
6102;DHT22;3081;50.584;7.032;2023-03-01T10:54:17;16.70;53.60
6102;DHT22;3081;50.584;7.032;2023-03-01T10:56:49;16.90;53.40
6102;DHT22;3081;50.584;7.032;2023-03-01T10:59:25;17.20;52.40
6102;DHT22;3081;50.584;7.032;2023-03-01T11:02:15;17.40;51.50
6102;DHT22;3081;50.584;7.032;2023-03-01T11:04:57;17.20;51.10
6102;DHT22;3081;50.584;7.032;2023-03-01T11:07:24;17.30;51.20
6102;DHT22;3081;50.584;7.032;2023-03-01T11:09:52;17.40;51.10
6102;DHT22;3081;50.584;7.032;2023-03-01T11:12:20;17.50;50.80
6102;DHT22;3081;50.584;7.032;2023-03-01T11:14:49;17.60;50.50
6102;DHT22;3081;50.584;7.032;2023-03-01T11:17:21;17.60;49.70
6102;DHT22;3081;50.584;7.032;2023-03-01T11:20:02;17.30;50.30
6102;DHT22;3081;50.584;7.032;2023-03-01T11:22:33;17.10;50.80
6102;DHT22;3081;50.584;7.032;2023-03-01T11:25:01;17.30;49.80
6102;DHT22;3081;50.584;7.032;2023-03-01T11:27:31;17.40;50.50
6102;DHT22;3081;50.584;7.032;2023-03-01T11:30:03;17.50;50.20
6102;DHT22;3081;50.584;7.032;2023-03-01T11:32:35;17.70;49.50
6102;DHT22;3081;50.584;7.032;2023-03-01T11:35:10;18.00;48.60
6102;DHT22;3081;50.584;7.032;2023-03-01T11:37:43;18.00;48.40
6102;DHT22;3081;50.584;7.032;2023-03-01T11:40:15;18.10;48.60
6102;DHT22;3081;50.584;7.032;2023-03-01T11:42:57;18.40;48.70
6102;DHT22;3081;50.584;7.032;2023-03-01T11:45:30;18.70;47.70
6102;DHT22;3081;50.584;7.032;2023-03-01T11:48:14;18.80;47.20
6102;DHT22;3081;50.584;7.032;2023-03-01T11:50:50;18.80;47.10
6102;DHT22;3081;50.584;7.032;2023-03-01T11:53:29;18.60;47.80
6102;DHT22;3081;50.584;7.032;2023-03-01T11:56:13;18.40;48.60
6102;DHT22;3081;50.584;7.032;2023-03-01T11:59:06;18.10;48.10
6102;DHT22;3081;50.584;7.032;2023-03-01T12:01:48;17.90;47.60
6102;DHT22;3081;50.584;7.032;2023-03-01T12:04:49;17.90;48.10
6102;DHT22;3081;50.584;7.032;2023-03-01T12:07:26;17.80;48.40
6102;DHT22;3081;50.584;7.032;2023-03-01T12:10:20;18.00;48.40
6102;DHT22;3081;50.584;7.032;2023-03-01T12:13:03;18.30;47.70
6102;DHT22;3081;50.584;7.032;2023-03-01T12:15:42;18.30;47.10
6102;DHT22;3081;50.584;7.032;2023-03-01T12:21:21;18.60;48.00
6102;DHT22;3081;50.584;7.032;2023-03-01T12:24:26;18.70;47.50
6102;DHT22;3081;50.584;7.032;2023-03-01T12:27:05;18.70;48.40
6102;DHT22;3081;50.584;7.032;2023-03-01T12:29:38;18.90;47.40
6102;DHT22;3081;50.584;7.032;2023-03-01T12:32:17;18.80;46.80
6102;DHT22;3081;50.584;7.032;2023-03-01T12:35:20;18.80;46.80
6102;DHT22;3081;50.584;7.032;2023-03-01T12:37:54;19.00;46.50
6102;DHT22;3081;50.584;7.032;2023-03-01T12:40:51;19.20;46.20
6102;DHT22;3081;50.584;7.032;2023-03-01T12:43:29;19.60;45.40
6102;DHT22;3081;50.584;7.032;2023-03-01T12:46:08;19.80;45.00
6102;DHT22;3081;50.584;7.032;2023-03-01T12:48:43;20.20;45.00
6102;DHT22;3081;50.584;7.032;2023-03-01T12:51:14;20.70;44.00
6102;DHT22;3081;50.584;7.032;2023-03-01T12:53:45;20.70;43.30
6102;DHT22;3081;50.584;7.032;2023-03-01T12:56:17;20.80;42.90
6102;DHT22;3081;50.584;7.032;2023-03-01T12:58:52;20.90;42.70
6102;DHT22;3081;50.584;7.032;2023-03-01T13:01:30;21.30;42.40
6102;DHT22;3081;50.584;7.032;2023-03-01T13:04:17;21.30;42.20
6102;DHT22;3081;50.584;7.032;2023-03-01T13:06:55;21.40;42.60
6102;DHT22;3081;50.584;7.032;2023-03-01T13:09:31;21.60;42.20
6102;DHT22;3081;50.584;7.032;2023-03-01T13:12:03;22.00;41.80
6102;DHT22;3081;50.584;7.032;2023-03-01T13:14:53;22.50;40.50
6102;DHT22;3081;50.584;7.032;2023-03-01T13:17:32;22.40;39.90
6102;DHT22;3081;50.584;7.032;2023-03-01T13:19:59;22.50;39.80
6102;DHT22;3081;50.584;7.032;2023-03-01T13:22:29;22.80;39.60
6102;DHT22;3081;50.584;7.032;2023-03-01T13:25:18;23.20;39.40
6102;DHT22;3081;50.584;7.032;2023-03-01T13:27:47;23.70;38.60
6102;DHT22;3081;50.584;7.032;2023-03-01T13:30:42;24.20;37.60
6102;DHT22;3081;50.584;7.032;2023-03-01T13:33:41;24.60;37.00
6102;DHT22;3081;50.584;7.032;2023-03-01T13:36:09;25.20;35.90
6102;DHT22;3081;50.584;7.032;2023-03-01T13:38:46;25.50;35.80
6102;DHT22;3081;50.584;7.032;2023-03-01T13:41:14;25.60;35.10
6102;DHT22;3081;50.584;7.032;2023-03-01T13:43:43;25.40;35.30
6102;DHT22;3081;50.584;7.032;2023-03-01T13:46:16;25.40;35.00
6102;DHT22;3081;50.584;7.032;2023-03-01T13:48:47;25.70;34.00
6102;DHT22;3081;50.584;7.032;2023-03-01T13:51:15;26.20;33.80
6102;DHT22;3081;50.584;7.032;2023-03-01T13:53:45;26.30;33.20
6102;DHT22;3081;50.584;7.032;2023-03-01T13:56:15;26.80;33.90
6102;DHT22;3081;50.584;7.032;2023-03-01T13:58:48;27.40;33.10
6102;DHT22;3081;50.584;7.032;2023-03-01T14:01:25;27.90;32.00
6102;DHT22;3081;50.584;7.032;2023-03-01T14:03:53;28.10;32.00
6102;DHT22;3081;50.584;7.032;2023-03-01T14:06:22;28.40;31.90
6102;DHT22;3081;50.584;7.032;2023-03-01T14:08:51;28.90;31.70
6102;DHT22;3081;50.584;7.032;2023-03-01T14:14:34;29.70;30.30
6102;DHT22;3081;50.584;7.032;2023-03-01T14:17:30;29.50;29.90
6102;DHT22;3081;50.584;7.032;2023-03-01T14:20:02;29.20;30.70
6102;DHT22;3081;50.584;7.032;2023-03-01T14:22:33;28.90;31.20
6102;DHT22;3081;50.584;7.032;2023-03-01T14:25:04;28.90;31.30
6102;DHT22;3081;50.584;7.032;2023-03-01T14:27:35;28.90;30.80
6102;DHT22;3081;50.584;7.032;2023-03-01T14:30:15;28.20;31.20
6102;DHT22;3081;50.584;7.032;2023-03-01T14:32:52;28.00;31.00
6102;DHT22;3081;50.584;7.032;2023-03-01T14:35:21;28.30;31.10
6102;DHT22;3081;50.584;7.032;2023-03-01T14:37:49;28.70;30.10
6102;DHT22;3081;50.584;7.032;2023-03-01T14:40:27;29.00;29.80
6102;DHT22;3081;50.584;7.032;2023-03-01T14:42:56;29.10;30.50
6102;DHT22;3081;50.584;7.032;2023-03-01T14:45:28;29.10;30.60
6102;DHT22;3081;50.584;7.032;2023-03-01T14:47:59;29.30;30.40
6102;DHT22;3081;50.584;7.032;2023-03-01T14:50:27;29.50;30.00
6102;DHT22;3081;50.584;7.032;2023-03-01T14:52:56;30.50;29.70
6102;DHT22;3081;50.584;7.032;2023-03-01T14:55:29;30.50;29.60
6102;DHT22;3081;50.584;7.032;2023-03-01T14:57:57;29.90;29.60
6102;DHT22;3081;50.584;7.032;2023-03-01T15:00:28;29.60;29.50
6102;DHT22;3081;50.584;7.032;2023-03-01T15:02:58;29.50;29.70
6102;DHT22;3081;50.584;7.032;2023-03-01T15:05:29;29.60;30.10
6102;DHT22;3081;50.584;7.032;2023-03-01T15:07:57;29.80;29.40
6102;DHT22;3081;50.584;7.032;2023-03-01T15:10:27;30.00;29.10
6102;DHT22;3081;50.584;7.032;2023-03-01T15:12:54;30.20;29.00
6102;DHT22;3081;50.584;7.032;2023-03-01T15:15:35;30.60;28.60
6102;DHT22;3081;50.584;7.032;2023-03-01T15:18:05;30.70;28.40
6102;DHT22;3081;50.584;7.032;2023-03-01T15:20:33;30.50;28.20
6102;DHT22;3081;50.584;7.032;2023-03-01T15:23:03;30.30;28.40
6102;DHT22;3081;50.584;7.032;2023-03-01T15:25:32;30.50;28.50
6102;DHT22;3081;50.584;7.032;2023-03-01T15:28:01;30.90;28.80
6102;DHT22;3081;50.584;7.032;2023-03-01T15:30:31;31.70;28.30
6102;DHT22;3081;50.584;7.032;2023-03-01T15:33:28;31.40;27.50
6102;DHT22;3081;50.584;7.032;2023-03-01T15:35:57;28.80;28.00
6102;DHT22;3081;50.584;7.032;2023-03-01T15:38:29;25.80;29.10
6102;DHT22;3081;50.584;7.032;2023-03-01T15:40:58;23.30;30.40
6102;DHT22;3081;50.584;7.032;2023-03-01T15:43:43;21.20;32.90
6102;DHT22;3081;50.584;7.032;2023-03-01T15:46:28;19.40;35.40
6102;DHT22;3081;50.584;7.032;2023-03-01T15:49:00;17.90;37.10
6102;DHT22;3081;50.584;7.032;2023-03-01T15:51:31;16.70;39.00
6102;DHT22;3081;50.584;7.032;2023-03-01T15:54:00;15.80;40.00
6102;DHT22;3081;50.584;7.032;2023-03-01T15:56:28;15.20;40.90
6102;DHT22;3081;50.584;7.032;2023-03-01T15:58:58;14.70;41.50
6102;DHT22;3081;50.584;7.032;2023-03-01T16:01:26;14.30;42.10
6102;DHT22;3081;50.584;7.032;2023-03-01T16:03:53;13.90;43.10
6102;DHT22;3081;50.584;7.032;2023-03-01T16:06:21;13.50;43.60
6102;DHT22;3081;50.584;7.032;2023-03-01T16:08:48;13.20;44.20
6102;DHT22;3081;50.584;7.032;2023-03-01T16:11:18;12.80;44.40
6102;DHT22;3081;50.584;7.032;2023-03-01T16:13:45;12.60;45.60
6102;DHT22;3081;50.584;7.032;2023-03-01T16:16:14;12.40;45.70
6102;DHT22;3081;50.584;7.032;2023-03-01T16:18:43;12.20;46.10
6102;DHT22;3081;50.584;7.032;2023-03-01T16:21:23;12.10;46.60
6102;DHT22;3081;50.584;7.032;2023-03-01T16:23:51;11.90;47.80
6102;DHT22;3081;50.584;7.032;2023-03-01T16:26:18;11.70;49.00
6102;DHT22;3081;50.584;7.032;2023-03-01T16:28:45;11.60;50.40
6102;DHT22;3081;50.584;7.032;2023-03-01T16:31:16;11.40;51.60
6102;DHT22;3081;50.584;7.032;2023-03-01T16:33:43;11.20;51.70